Dahinda, Illinois
Current Conditions -  °F | °C
As of 4:35 AM on Monday 26 Jan 2015 (Local Time) from KGBG Reporting Station
Clear Clear  
Wind Chill: 11°   Ceiling: Unl
Heat Index: 18°   Visibility: 10mi
Dew Point: 16°   Wind: 5mph
Humidity: 91%   Direction: 280°W
Pressure: 29.99"   Gusts: NA
Location:  40.92°N, 90.11°W
Report Text: KGBG 261035Z AUTO 28004KT 10SM CLR M08/M09 A2999 RMK AO2 T10771090
Loading
Personal Weather Stations






























Interactive Weather Map New forecast layout! Learn more

10-Day Weather Forecast

Advertisements
Track Severe Weather on mobile